sensor_id;sensor_type;location;lat;lon;timestamp;P1;durP1;ratioP1;P2;durP2;ratioP2
38591;SDS011;24356;48.460;11.450;2023-02-05T00:00:07;11.45;;;6.10;;
38591;SDS011;24356;48.460;11.450;2023-02-05T00:02:34;21.35;;;8.07;;
38591;SDS011;24356;48.460;11.450;2023-02-05T00:04:59;25.27;;;9.13;;
38591;SDS011;24356;48.460;11.450;2023-02-05T00:07:25;22.85;;;8.43;;
38591;SDS011;24356;48.460;11.450;2023-02-05T00:09:51;15.50;;;7.18;;
38591;SDS011;24356;48.460;11.450;2023-02-05T00:12:17;13.90;;;6.75;;
38591;SDS011;24356;48.460;11.450;2023-02-05T00:14:42;17.08;;;7.20;;
38591;SDS011;24356;48.460;11.450;2023-02-05T00:17:08;14.05;;;6.43;;
38591;SDS011;24356;48.460;11.450;2023-02-05T00:19:33;16.30;;;6.00;;
38591;SDS011;24356;48.460;11.450;2023-02-05T00:21:59;15.80;;;5.63;;
38591;SDS011;24356;48.460;11.450;2023-02-05T00:24:25;10.63;;;5.60;;
38591;SDS011;24356;48.460;11.450;2023-02-05T00:26:50;12.45;;;5.32;;
38591;SDS011;24356;48.460;11.450;2023-02-05T00:29:17;11.63;;;4.85;;
38591;SDS011;24356;48.460;11.450;2023-02-05T00:31:43;10.32;;;5.05;;
38591;SDS011;24356;48.460;11.450;2023-02-05T00:34:08;11.13;;;4.20;;
38591;SDS011;24356;48.460;11.450;2023-02-05T00:36:34;7.97;;;4.50;;
38591;SDS011;24356;48.460;11.450;2023-02-05T00:39:00;7.88;;;4.18;;
38591;SDS011;24356;48.460;11.450;2023-02-05T00:41:25;12.88;;;4.93;;
38591;SDS011;24356;48.460;11.450;2023-02-05T00:43:51;9.23;;;4.53;;
38591;SDS011;24356;48.460;11.450;2023-02-05T00:46:16;9.50;;;4.20;;
38591;SDS011;24356;48.460;11.450;2023-02-05T00:48:42;7.57;;;3.75;;
38591;SDS011;24356;48.460;11.450;2023-02-05T00:51:09;6.18;;;3.85;;
38591;SDS011;24356;48.460;11.450;2023-02-05T00:53:35;8.77;;;4.20;;
38591;SDS011;24356;48.460;11.450;2023-02-05T00:56:02;7.78;;;3.85;;
38591;SDS011;24356;48.460;11.450;2023-02-05T00:58:31;9.35;;;4.07;;
38591;SDS011;24356;48.460;11.450;2023-02-05T01:00:57;10.65;;;3.95;;
38591;SDS011;24356;48.460;11.450;2023-02-05T01:03:22;10.07;;;4.28;;
38591;SDS011;24356;48.460;11.450;2023-02-05T01:05:48;5.10;;;3.42;;
38591;SDS011;24356;48.460;11.450;2023-02-05T01:08:13;6.57;;;3.72;;
38591;SDS011;24356;48.460;11.450;2023-02-05T01:10:43;6.40;;;3.47;;
38591;SDS011;24356;48.460;11.450;2023-02-05T01:13:10;8.45;;;3.97;;
38591;SDS011;24356;48.460;11.450;2023-02-05T01:15:36;6.47;;;3.83;;
38591;SDS011;24356;48.460;11.450;2023-02-05T01:18:02;6.95;;;3.70;;
38591;SDS011;24356;48.460;11.450;2023-02-05T01:20:28;7.00;;;4.28;;
38591;SDS011;24356;48.460;11.450;2023-02-05T01:22:54;5.97;;;3.97;;
38591;SDS011;24356;48.460;11.450;2023-02-05T01:25:19;8.70;;;4.38;;
38591;SDS011;24356;48.460;11.450;2023-02-05T01:27:45;12.13;;;4.93;;
38591;SDS011;24356;48.460;11.450;2023-02-05T01:30:11;7.60;;;4.22;;
38591;SDS011;24356;48.460;11.450;2023-02-05T01:32:37;8.65;;;4.55;;
38591;SDS011;24356;48.460;11.450;2023-02-05T01:35:04;11.23;;;4.97;;
38591;SDS011;24356;48.460;11.450;2023-02-05T01:37:30;7.72;;;3.95;;
38591;SDS011;24356;48.460;11.450;2023-02-05T01:39:57;7.50;;;4.93;;
38591;SDS011;24356;48.460;11.450;2023-02-05T01:42:24;9.18;;;4.68;;
38591;SDS011;24356;48.460;11.450;2023-02-05T01:47:45;7.82;;;4.50;;
38591;SDS011;24356;48.460;11.450;2023-02-05T01:50:12;10.50;;;5.18;;
38591;SDS011;24356;48.460;11.450;2023-02-05T01:52:38;13.52;;;6.25;;
38591;SDS011;24356;48.460;11.450;2023-02-05T01:55:04;11.40;;;6.13;;
38591;SDS011;24356;48.460;11.450;2023-02-05T01:57:31;11.65;;;6.40;;
38591;SDS011;24356;48.460;11.450;2023-02-05T01:59:57;11.45;;;6.43;;
38591;SDS011;24356;48.460;11.450;2023-02-05T02:02:23;13.13;;;7.30;;
38591;SDS011;24356;48.460;11.450;2023-02-05T02:04:51;10.55;;;6.03;;
38591;SDS011;24356;48.460;11.450;2023-02-05T02:07:22;11.43;;;6.68;;
38591;SDS011;24356;48.460;11.450;2023-02-05T02:09:49;11.00;;;6.53;;
38591;SDS011;24356;48.460;11.450;2023-02-05T02:12:21;12.40;;;5.97;;
38591;SDS011;24356;48.460;11.450;2023-02-05T02:14:51;11.95;;;5.93;;
38591;SDS011;24356;48.460;11.450;2023-02-05T02:17:22;11.68;;;6.03;;
38591;SDS011;24356;48.460;11.450;2023-02-05T02:19:55;11.68;;;6.43;;
38591;SDS011;24356;48.460;11.450;2023-02-05T02:22:32;11.80;;;6.28;;
38591;SDS011;24356;48.460;11.450;2023-02-05T02:25:19;10.90;;;6.18;;
38591;SDS011;24356;48.460;11.450;2023-02-05T02:28:10;12.88;;;6.38;;
38591;SDS011;24356;48.460;11.450;2023-02-05T02:33:47;11.48;;;5.38;;
38591;SDS011;24356;48.460;11.450;2023-02-05T02:38:53;13.05;;;6.10;;
38591;SDS011;24356;48.460;11.450;2023-02-05T02:44:03;11.90;;;6.63;;
38591;SDS011;24356;48.460;11.450;2023-02-05T02:46:39;10.02;;;5.45;;
38591;SDS011;24356;48.460;11.450;2023-02-05T02:49:15;15.02;;;6.35;;
38591;SDS011;24356;48.460;11.450;2023-02-05T02:51:45;9.77;;;5.60;;
38591;SDS011;24356;48.460;11.450;2023-02-05T02:54:14;8.93;;;5.18;;
38591;SDS011;24356;48.460;11.450;2023-02-05T02:56:43;9.48;;;5.65;;
38591;SDS011;24356;48.460;11.450;2023-02-05T02:59:13;10.50;;;5.97;;
38591;SDS011;24356;48.460;11.450;2023-02-05T03:01:42;8.23;;;5.30;;
38591;SDS011;24356;48.460;11.450;2023-02-05T03:04:14;11.40;;;5.50;;
38591;SDS011;24356;48.460;11.450;2023-02-05T03:06:45;9.70;;;5.57;;
38591;SDS011;24356;48.460;11.450;2023-02-05T03:09:21;11.07;;;6.13;;
38591;SDS011;24356;48.460;11.450;2023-02-05T03:11:54;10.48;;;5.90;;
38591;SDS011;24356;48.460;11.450;2023-02-05T03:14:19;9.82;;;5.40;;
38591;SDS011;24356;48.460;11.450;2023-02-05T03:16:45;7.75;;;5.18;;
38591;SDS011;24356;48.460;11.450;2023-02-05T03:19:12;10.93;;;5.85;;
38591;SDS011;24356;48.460;11.450;2023-02-05T03:21:41;9.70;;;5.03;;
38591;SDS011;24356;48.460;11.450;2023-02-05T03:24:10;12.27;;;6.13;;
38591;SDS011;24356;48.460;11.450;2023-02-05T03:26:37;8.73;;;5.20;;
38591;SDS011;24356;48.460;11.450;2023-02-05T03:29:04;8.45;;;5.07;;
38591;SDS011;24356;48.460;11.450;2023-02-05T03:31:39;7.63;;;4.80;;
38591;SDS011;24356;48.460;11.450;2023-02-05T03:34:21;10.18;;;4.95;;
38591;SDS011;24356;48.460;11.450;2023-02-05T03:37:09;7.10;;;4.57;;
38591;SDS011;24356;48.460;11.450;2023-02-05T03:45:41;6.18;;;4.05;;
38591;SDS011;24356;48.460;11.450;2023-02-05T03:48:21;7.72;;;3.95;;
38591;SDS011;24356;48.460;11.450;2023-02-05T03:50:54;6.50;;;4.07;;
38591;SDS011;24356;48.460;11.450;2023-02-05T03:53:56;9.43;;;4.30;;
38591;SDS011;24356;48.460;11.450;2023-02-05T03:56:48;8.20;;;4.50;;
38591;SDS011;24356;48.460;11.450;2023-02-05T03:59:16;7.20;;;4.05;;
38591;SDS011;24356;48.460;11.450;2023-02-05T04:01:44;6.22;;;3.95;;
38591;SDS011;24356;48.460;11.450;2023-02-05T04:04:11;7.07;;;4.10;;
38591;SDS011;24356;48.460;11.450;2023-02-05T04:06:36;7.95;;;3.88;;
38591;SDS011;24356;48.460;11.450;2023-02-05T04:09:03;6.88;;;3.90;;
38591;SDS011;24356;48.460;11.450;2023-02-05T04:11:28;6.05;;;3.88;;
38591;SDS011;24356;48.460;11.450;2023-02-05T04:13:56;6.75;;;3.90;;
38591;SDS011;24356;48.460;11.450;2023-02-05T04:16:22;5.57;;;3.55;;
38591;SDS011;24356;48.460;11.450;2023-02-05T04:18:48;6.95;;;3.88;;
38591;SDS011;24356;48.460;11.450;2023-02-05T04:21:13;6.03;;;3.50;;
38591;SDS011;24356;48.460;11.450;2023-02-05T04:23:39;7.97;;;4.13;;
38591;SDS011;24356;48.460;11.450;2023-02-05T04:26:05;8.10;;;3.75;;
38591;SDS011;24356;48.460;11.450;2023-02-05T04:28:30;6.72;;;3.85;;
38591;SDS011;24356;48.460;11.450;2023-02-05T04:30:56;6.10;;;3.80;;
38591;SDS011;24356;48.460;11.450;2023-02-05T04:33:22;6.03;;;3.63;;
38591;SDS011;24356;48.460;11.450;2023-02-05T04:35:48;7.95;;;3.95;;
38591;SDS011;24356;48.460;11.450;2023-02-05T04:38:13;6.93;;;3.97;;
38591;SDS011;24356;48.460;11.450;2023-02-05T04:40:39;8.32;;;4.93;;
38591;SDS011;24356;48.460;11.450;2023-02-05T04:43:05;9.70;;;5.38;;
38591;SDS011;24356;48.460;11.450;2023-02-05T04:45:30;7.50;;;5.22;;
38591;SDS011;24356;48.460;11.450;2023-02-05T04:47:57;9.43;;;4.97;;
38591;SDS011;24356;48.460;11.450;2023-02-05T04:50:23;6.93;;;4.35;;
38591;SDS011;24356;48.460;11.450;2023-02-05T04:52:49;6.57;;;4.43;;
38591;SDS011;24356;48.460;11.450;2023-02-05T04:55:15;8.32;;;4.82;;
38591;SDS011;24356;48.460;11.450;2023-02-05T04:57:40;8.05;;;4.55;;
38591;SDS011;24356;48.460;11.450;2023-02-05T05:00:06;9.90;;;5.72;;
38591;SDS011;24356;48.460;11.450;2023-02-05T05:02:33;9.38;;;6.03;;
38591;SDS011;24356;48.460;11.450;2023-02-05T05:04:59;9.35;;;6.20;;
38591;SDS011;24356;48.460;11.450;2023-02-05T05:07:25;8.63;;;5.30;;
38591;SDS011;24356;48.460;11.450;2023-02-05T05:09:53;8.45;;;5.55;;
38591;SDS011;24356;48.460;11.450;2023-02-05T05:12:18;7.82;;;4.55;;
38591;SDS011;24356;48.460;11.450;2023-02-05T05:14:44;7.75;;;4.78;;
38591;SDS011;24356;48.460;11.450;2023-02-05T05:17:09;9.95;;;4.95;;
38591;SDS011;24356;48.460;11.450;2023-02-05T05:19:36;7.90;;;5.13;;
38591;SDS011;24356;48.460;11.450;2023-02-05T05:22:02;7.32;;;4.55;;
38591;SDS011;24356;48.460;11.450;2023-02-05T05:24:28;8.95;;;4.32;;
38591;SDS011;24356;48.460;11.450;2023-02-05T05:26:54;7.38;;;4.45;;
38591;SDS011;24356;48.460;11.450;2023-02-05T05:29:20;6.53;;;4.15;;
38591;SDS011;24356;48.460;11.450;2023-02-05T05:31:45;8.15;;;4.72;;
38591;SDS011;24356;48.460;11.450;2023-02-05T05:34:11;8.55;;;4.85;;
38591;SDS011;24356;48.460;11.450;2023-02-05T05:36:36;7.82;;;4.90;;
38591;SDS011;24356;48.460;11.450;2023-02-05T05:39:07;10.15;;;5.28;;
38591;SDS011;24356;48.460;11.450;2023-02-05T05:41:51;7.55;;;4.68;;
38591;SDS011;24356;48.460;11.450;2023-02-05T05:44:36;7.70;;;4.50;;
38591;SDS011;24356;48.460;11.450;2023-02-05T05:47:01;7.53;;;4.70;;
38591;SDS011;24356;48.460;11.450;2023-02-05T05:49:28;6.60;;;4.28;;
38591;SDS011;24356;48.460;11.450;2023-02-05T05:51:54;7.78;;;4.75;;
38591;SDS011;24356;48.460;11.450;2023-02-05T05:54:20;9.15;;;4.95;;
38591;SDS011;24356;48.460;11.450;2023-02-05T05:56:45;12.65;;;5.47;;
38591;SDS011;24356;48.460;11.450;2023-02-05T05:59:13;8.68;;;5.28;;
38591;SDS011;24356;48.460;11.450;2023-02-05T06:01:39;7.53;;;5.05;;
38591;SDS011;24356;48.460;11.450;2023-02-05T06:04:05;7.68;;;5.18;;
38591;SDS011;24356;48.460;11.450;2023-02-05T06:06:31;7.40;;;4.60;;
38591;SDS011;24356;48.460;11.450;2023-02-05T06:08:57;8.00;;;4.72;;
38591;SDS011;24356;48.460;11.450;2023-02-05T06:11:24;7.63;;;4.47;;
38591;SDS011;24356;48.460;11.450;2023-02-05T06:13:50;8.95;;;4.28;;
38591;SDS011;24356;48.460;11.450;2023-02-05T06:16:15;6.15;;;4.40;;
38591;SDS011;24356;48.460;11.450;2023-02-05T06:18:41;9.15;;;4.35;;
38591;SDS011;24356;48.460;11.450;2023-02-05T06:21:07;7.43;;;4.03;;
38591;SDS011;24356;48.460;11.450;2023-02-05T06:23:33;7.45;;;4.25;;
38591;SDS011;24356;48.460;11.450;2023-02-05T06:25:59;8.07;;;4.60;;
38591;SDS011;24356;48.460;11.450;2023-02-05T06:28:25;7.85;;;3.85;;
38591;SDS011;24356;48.460;11.450;2023-02-05T06:30:50;8.05;;;4.05;;
38591;SDS011;24356;48.460;11.450;2023-02-05T06:33:16;10.02;;;4.45;;
38591;SDS011;24356;48.460;11.450;2023-02-05T06:35:41;7.85;;;3.92;;
38591;SDS011;24356;48.460;11.450;2023-02-05T06:38:07;7.47;;;4.30;;
38591;SDS011;24356;48.460;11.450;2023-02-05T06:40:33;6.72;;;3.78;;
38591;SDS011;24356;48.460;11.450;2023-02-05T06:42:59;7.10;;;4.28;;
38591;SDS011;24356;48.460;11.450;2023-02-05T06:45:25;5.40;;;3.70;;
38591;SDS011;24356;48.460;11.450;2023-02-05T06:47:50;6.85;;;3.92;;
38591;SDS011;24356;48.460;11.450;2023-02-05T06:50:21;7.80;;;4.07;;
38591;SDS011;24356;48.460;11.450;2023-02-05T06:52:47;8.05;;;4.00;;
38591;SDS011;24356;48.460;11.450;2023-02-05T06:55:14;8.75;;;4.25;;
38591;SDS011;24356;48.460;11.450;2023-02-05T06:57:39;6.75;;;3.90;;
38591;SDS011;24356;48.460;11.450;2023-02-05T07:00:05;6.85;;;3.72;;
38591;SDS011;24356;48.460;11.450;2023-02-05T07:02:31;6.72;;;3.90;;
38591;SDS011;24356;48.460;11.450;2023-02-05T07:04:57;8.05;;;4.20;;
38591;SDS011;24356;48.460;11.450;2023-02-05T07:07:23;7.72;;;3.92;;
38591;SDS011;24356;48.460;11.450;2023-02-05T07:09:48;7.85;;;4.25;;
38591;SDS011;24356;48.460;11.450;2023-02-05T07:12:14;8.20;;;4.20;;
38591;SDS011;24356;48.460;11.450;2023-02-05T07:14:40;8.63;;;4.80;;
38591;SDS011;24356;48.460;11.450;2023-02-05T07:17:06;8.10;;;4.30;;
38591;SDS011;24356;48.460;11.450;2023-02-05T07:19:33;10.50;;;5.88;;
38591;SDS011;24356;48.460;11.450;2023-02-05T07:21:59;9.88;;;5.68;;
38591;SDS011;24356;48.460;11.450;2023-02-05T07:24:25;8.90;;;4.68;;
38591;SDS011;24356;48.460;11.450;2023-02-05T07:26:51;10.07;;;5.22;;
38591;SDS011;24356;48.460;11.450;2023-02-05T07:29:16;11.88;;;5.45;;
38591;SDS011;24356;48.460;11.450;2023-02-05T07:31:42;10.57;;;5.68;;
38591;SDS011;24356;48.460;11.450;2023-02-05T07:34:08;10.00;;;5.43;;
38591;SDS011;24356;48.460;11.450;2023-02-05T07:36:33;11.57;;;5.32;;
38591;SDS011;24356;48.460;11.450;2023-02-05T07:38:59;13.73;;;7.10;;
38591;SDS011;24356;48.460;11.450;2023-02-05T07:41:24;13.60;;;6.80;;
38591;SDS011;24356;48.460;11.450;2023-02-05T07:43:51;13.55;;;6.97;;
38591;SDS011;24356;48.460;11.450;2023-02-05T07:46:17;15.15;;;7.35;;
38591;SDS011;24356;48.460;11.450;2023-02-05T07:48:43;19.00;;;8.77;;
38591;SDS011;24356;48.460;11.450;2023-02-05T07:51:16;24.20;;;8.88;;
38591;SDS011;24356;48.460;11.450;2023-02-05T07:53:46;29.42;;;12.05;;
38591;SDS011;24356;48.460;11.450;2023-02-05T07:56:12;61.38;;;22.63;;
38591;SDS011;24356;48.460;11.450;2023-02-05T07:58:39;41.67;;;16.10;;
38591;SDS011;24356;48.460;11.450;2023-02-05T08:01:06;45.92;;;17.17;;
38591;SDS011;24356;48.460;11.450;2023-02-05T08:03:31;35.38;;;15.52;;
38591;SDS011;24356;48.460;11.450;2023-02-05T08:05:57;36.28;;;15.70;;
38591;SDS011;24356;48.460;11.450;2023-02-05T08:08:23;38.67;;;16.02;;
38591;SDS011;24356;48.460;11.450;2023-02-05T08:10:59;45.38;;;18.40;;
38591;SDS011;24356;48.460;11.450;2023-02-05T08:13:30;34.72;;;15.77;;
38591;SDS011;24356;48.460;11.450;2023-02-05T08:15:56;24.10;;;12.20;;
38591;SDS011;24356;48.460;11.450;2023-02-05T08:18:22;18.08;;;11.27;;
38591;SDS011;24356;48.460;11.450;2023-02-05T08:20:50;16.33;;;9.55;;
38591;SDS011;24356;48.460;11.450;2023-02-05T08:23:17;18.33;;;9.68;;
38591;SDS011;24356;48.460;11.450;2023-02-05T08:25:43;15.38;;;8.63;;
38591;SDS011;24356;48.460;11.450;2023-02-05T08:28:09;14.15;;;8.65;;
38591;SDS011;24356;48.460;11.450;2023-02-05T08:30:35;16.48;;;8.80;;
38591;SDS011;24356;48.460;11.450;2023-02-05T08:33:00;31.48;;;15.27;;
38591;SDS011;24356;48.460;11.450;2023-02-05T08:35:27;46.33;;;18.75;;
38591;SDS011;24356;48.460;11.450;2023-02-05T08:37:53;32.92;;;15.27;;
38591;SDS011;24356;48.460;11.450;2023-02-05T08:40:18;29.08;;;13.43;;
38591;SDS011;24356;48.460;11.450;2023-02-05T08:42:44;23.27;;;12.00;;
38591;SDS011;24356;48.460;11.450;2023-02-05T08:45:13;20.73;;;9.98;;
38591;SDS011;24356;48.460;11.450;2023-02-05T08:47:38;16.40;;;9.60;;
38591;SDS011;24356;48.460;11.450;2023-02-05T08:50:04;21.75;;;10.10;;
38591;SDS011;24356;48.460;11.450;2023-02-05T08:52:30;13.43;;;8.25;;
38591;SDS011;24356;48.460;11.450;2023-02-05T08:54:56;14.13;;;7.05;;
38591;SDS011;24356;48.460;11.450;2023-02-05T08:57:27;8.82;;;5.22;;
38591;SDS011;24356;48.460;11.450;2023-02-05T08:59:53;11.80;;;7.75;;
38591;SDS011;24356;48.460;11.450;2023-02-05T09:02:19;5.72;;;4.50;;
38591;SDS011;24356;48.460;11.450;2023-02-05T09:04:46;6.40;;;4.40;;
38591;SDS011;24356;48.460;11.450;2023-02-05T09:07:12;7.47;;;4.22;;
38591;SDS011;24356;48.460;11.450;2023-02-05T09:09:38;7.22;;;4.15;;
38591;SDS011;24356;48.460;11.450;2023-02-05T09:12:05;8.80;;;4.70;;
38591;SDS011;24356;48.460;11.450;2023-02-05T09:14:36;9.55;;;4.45;;
38591;SDS011;24356;48.460;11.450;2023-02-05T09:17:04;7.88;;;4.90;;
38591;SDS011;24356;48.460;11.450;2023-02-05T09:19:40;11.30;;;6.88;;
38591;SDS011;24356;48.460;11.450;2023-02-05T09:22:06;6.57;;;4.47;;
38591;SDS011;24356;48.460;11.450;2023-02-05T09:24:35;10.45;;;5.60;;
38591;SDS011;24356;48.460;11.450;2023-02-05T09:27:02;8.43;;;5.47;;
38591;SDS011;24356;48.460;11.450;2023-02-05T09:29:28;9.73;;;5.63;;
38591;SDS011;24356;48.460;11.450;2023-02-05T09:31:54;17.42;;;9.57;;
38591;SDS011;24356;48.460;11.450;2023-02-05T09:34:21;16.40;;;9.77;;
38591;SDS011;24356;48.460;11.450;2023-02-05T09:36:46;7.82;;;4.10;;
38591;SDS011;24356;48.460;11.450;2023-02-05T09:39:12;7.88;;;4.80;;
38591;SDS011;24356;48.460;11.450;2023-02-05T09:41:59;8.70;;;4.80;;
38591;SDS011;24356;48.460;11.450;2023-02-05T09:47:22;13.60;;;7.43;;
38591;SDS011;24356;48.460;11.450;2023-02-05T09:50:21;8.68;;;4.80;;
38591;SDS011;24356;48.460;11.450;2023-02-05T09:52:53;6.73;;;4.80;;
38591;SDS011;24356;48.460;11.450;2023-02-05T09:55:26;8.07;;;5.10;;
38591;SDS011;24356;48.460;11.450;2023-02-05T09:57:55;7.60;;;4.65;;
38591;SDS011;24356;48.460;11.450;2023-02-05T10:00:46;7.68;;;5.03;;
38591;SDS011;24356;48.460;11.450;2023-02-05T10:14:07;8.77;;;4.57;;
38591;SDS011;24356;48.460;11.450;2023-02-05T10:17:00;8.27;;;4.63;;
38591;SDS011;24356;48.460;11.450;2023-02-05T10:20:11;5.15;;;3.80;;
38591;SDS011;24356;48.460;11.450;2023-02-05T10:25:40;9.30;;;4.60;;
38591;SDS011;24356;48.460;11.450;2023-02-05T10:37:08;7.38;;;4.85;;
38591;SDS011;24356;48.460;11.450;2023-02-05T10:39:38;7.25;;;4.45;;
38591;SDS011;24356;48.460;11.450;2023-02-05T10:42:06;11.43;;;6.63;;
38591;SDS011;24356;48.460;11.450;2023-02-05T10:44:45;5.38;;;3.83;;
38591;SDS011;24356;48.460;11.450;2023-02-05T10:47:14;6.63;;;4.35;;
38591;SDS011;24356;48.460;11.450;2023-02-05T10:52:25;10.45;;;5.95;;
38591;SDS011;24356;48.460;11.450;2023-02-05T10:54:50;9.23;;;4.40;;
38591;SDS011;24356;48.460;11.450;2023-02-05T10:57:18;8.88;;;4.40;;
38591;SDS011;24356;48.460;11.450;2023-02-05T10:59:52;7.85;;;4.55;;
38591;SDS011;24356;48.460;11.450;2023-02-05T11:02:20;12.38;;;7.07;;
38591;SDS011;24356;48.460;11.450;2023-02-05T11:04:51;19.23;;;11.25;;
38591;SDS011;24356;48.460;11.450;2023-02-05T11:07:30;8.20;;;4.50;;
38591;SDS011;24356;48.460;11.450;2023-02-05T11:10:12;12.10;;;6.95;;
38591;SDS011;24356;48.460;11.450;2023-02-05T11:12:41;8.63;;;5.95;;
38591;SDS011;24356;48.460;11.450;2023-02-05T11:15:16;13.00;;;5.20;;
38591;SDS011;24356;48.460;11.450;2023-02-05T11:17:44;8.32;;;4.75;;
38591;SDS011;24356;48.460;11.450;2023-02-05T11:22:40;6.30;;;3.95;;
38591;SDS011;24356;48.460;11.450;2023-02-05T11:25:16;9.93;;;3.95;;
38591;SDS011;24356;48.460;11.450;2023-02-05T11:27:54;7.30;;;4.88;;
38591;SDS011;24356;48.460;11.450;2023-02-05T11:30:24;15.60;;;10.88;;
38591;SDS011;24356;48.460;11.450;2023-02-05T11:32:56;10.05;;;7.22;;
38591;SDS011;24356;48.460;11.450;2023-02-05T11:35:28;6.78;;;4.63;;
38591;SDS011;24356;48.460;11.450;2023-02-05T11:40:49;11.13;;;6.53;;
38591;SDS011;24356;48.460;11.450;2023-02-05T11:43:19;22.15;;;13.02;;
38591;SDS011;24356;48.460;11.450;2023-02-05T11:45:51;18.00;;;8.65;;
38591;SDS011;24356;48.460;11.450;2023-02-05T11:49:04;22.05;;;12.82;;
38591;SDS011;24356;48.460;11.450;2023-02-05T11:51:09;7.65;;;4.82;;
38591;SDS011;24356;48.460;11.450;2023-02-05T11:53:42;6.68;;;4.97;;
38591;SDS011;24356;48.460;11.450;2023-02-05T11:56:19;7.63;;;3.80;;
38591;SDS011;24356;48.460;11.450;2023-02-05T11:59:32;7.57;;;4.80;;
38591;SDS011;24356;48.460;11.450;2023-02-05T12:01:44;8.50;;;5.03;;
38591;SDS011;24356;48.460;11.450;2023-02-05T12:04:15;8.20;;;4.72;;
38591;SDS011;24356;48.460;11.450;2023-02-05T12:09:13;7.10;;;4.43;;
38591;SDS011;24356;48.460;11.450;2023-02-05T12:11:53;6.85;;;4.28;;
38591;SDS011;24356;48.460;11.450;2023-02-05T12:14:48;5.88;;;4.07;;
38591;SDS011;24356;48.460;11.450;2023-02-05T12:20:27;9.25;;;4.10;;
38591;SDS011;24356;48.460;11.450;2023-02-05T12:26:42;8.45;;;4.45;;
38591;SDS011;24356;48.460;11.450;2023-02-05T12:28:55;8.00;;;4.65;;
38591;SDS011;24356;48.460;11.450;2023-02-05T12:34:27;9.48;;;5.47;;
38591;SDS011;24356;48.460;11.450;2023-02-05T12:42:59;9.52;;;5.00;;
38591;SDS011;24356;48.460;11.450;2023-02-05T12:45:50;8.52;;;5.03;;
38591;SDS011;24356;48.460;11.450;2023-02-05T12:51:31;10.35;;;5.47;;
38591;SDS011;24356;48.460;11.450;2023-02-05T12:56:54;10.13;;;5.55;;
38591;SDS011;24356;48.460;11.450;2023-02-05T13:05:05;12.20;;;6.05;;
38591;SDS011;24356;48.460;11.450;2023-02-05T13:07:43;9.70;;;5.35;;
38591;SDS011;24356;48.460;11.450;2023-02-05T13:12:42;10.75;;;6.25;;
38591;SDS011;24356;48.460;11.450;2023-02-05T13:15:19;10.20;;;5.55;;
38591;SDS011;24356;48.460;11.450;2023-02-05T13:20:31;13.23;;;5.60;;
38591;SDS011;24356;48.460;11.450;2023-02-05T13:23:18;14.23;;;7.50;;
38591;SDS011;24356;48.460;11.450;2023-02-05T13:26:04;12.80;;;7.00;;
38591;SDS011;24356;48.460;11.450;2023-02-05T13:28:53;20.10;;;8.65;;
38591;SDS011;24356;48.460;11.450;2023-02-05T13:31:28;14.32;;;8.18;;
38591;SDS011;24356;48.460;11.450;2023-02-05T13:34:03;12.70;;;5.95;;
38591;SDS011;24356;48.460;11.450;2023-02-05T13:52:46;13.05;;;6.10;;
38591;SDS011;24356;48.460;11.450;2023-02-05T14:01:15;18.00;;;8.20;;
38591;SDS011;24356;48.460;11.450;2023-02-05T14:03:52;18.48;;;7.93;;
38591;SDS011;24356;48.460;11.450;2023-02-05T14:06:31;16.25;;;8.18;;
38591;SDS011;24356;48.460;11.450;2023-02-05T14:08:59;18.85;;;9.15;;
38591;SDS011;24356;48.460;11.450;2023-02-05T14:14:33;20.13;;;9.77;;
38591;SDS011;24356;48.460;11.450;2023-02-05T14:19:52;12.05;;;6.50;;
38591;SDS011;24356;48.460;11.450;2023-02-05T14:30:44;14.45;;;6.70;;
38591;SDS011;24356;48.460;11.450;2023-02-05T14:33:37;16.90;;;6.78;;
38591;SDS011;24356;48.460;11.450;2023-02-05T14:41:30;15.13;;;6.75;;
38591;SDS011;24356;48.460;11.450;2023-02-05T14:44:05;15.90;;;6.53;;
38591;SDS011;24356;48.460;11.450;2023-02-05T14:46:51;11.45;;;6.00;;
38591;SDS011;24356;48.460;11.450;2023-02-05T14:49:37;17.40;;;6.72;;
38591;SDS011;24356;48.460;11.450;2023-02-05T14:54:51;15.80;;;6.45;;
38591;SDS011;24356;48.460;11.450;2023-02-05T15:13:15;15.55;;;6.55;;
38591;SDS011;24356;48.460;11.450;2023-02-05T15:16:05;17.10;;;7.55;;
38591;SDS011;24356;48.460;11.450;2023-02-05T15:18:40;35.72;;;12.73;;
38591;SDS011;24356;48.460;11.450;2023-02-05T15:21:19;34.03;;;11.20;;
38591;SDS011;24356;48.460;11.450;2023-02-05T15:26:26;15.40;;;8.70;;
38591;SDS011;24356;48.460;11.450;2023-02-05T15:31:45;18.98;;;8.13;;
38591;SDS011;24356;48.460;11.450;2023-02-05T15:34:27;18.98;;;8.65;;
38591;SDS011;24356;48.460;11.450;2023-02-05T15:42:09;17.02;;;8.05;;
38591;SDS011;24356;48.460;11.450;2023-02-05T15:44:40;20.52;;;9.00;;
38591;SDS011;24356;48.460;11.450;2023-02-05T15:47:27;16.10;;;7.50;;
38591;SDS011;24356;48.460;11.450;2023-02-05T15:49:54;18.10;;;7.57;;
38591;SDS011;24356;48.460;11.450;2023-02-05T15:52:23;16.38;;;7.82;;
38591;SDS011;24356;48.460;11.450;2023-02-05T15:54:52;16.65;;;7.97;;
38591;SDS011;24356;48.460;11.450;2023-02-05T15:57:24;16.15;;;8.05;;
38591;SDS011;24356;48.460;11.450;2023-02-05T15:59:54;19.08;;;8.48;;
38591;SDS011;24356;48.460;11.450;2023-02-05T16:02:25;22.58;;;11.73;;
38591;SDS011;24356;48.460;11.450;2023-02-05T16:04:56;27.00;;;12.32;;
38591;SDS011;24356;48.460;11.450;2023-02-05T16:10:19;16.95;;;8.98;;
38591;SDS011;24356;48.460;11.450;2023-02-05T16:18:46;22.30;;;10.07;;
38591;SDS011;24356;48.460;11.450;2023-02-05T16:21:22;21.27;;;10.25;;
38591;SDS011;24356;48.460;11.450;2023-02-05T16:23:59;31.50;;;14.40;;
38591;SDS011;24356;48.460;11.450;2023-02-05T16:26:32;28.35;;;14.98;;
38591;SDS011;24356;48.460;11.450;2023-02-05T16:29:05;34.30;;;14.90;;
38591;SDS011;24356;48.460;11.450;2023-02-05T16:34:12;20.55;;;10.55;;
38591;SDS011;24356;48.460;11.450;2023-02-05T16:36:43;25.98;;;12.10;;
38591;SDS011;24356;48.460;11.450;2023-02-05T16:39:26;27.27;;;12.05;;
38591;SDS011;24356;48.460;11.450;2023-02-05T16:42:04;27.42;;;12.50;;
38591;SDS011;24356;48.460;11.450;2023-02-05T16:47:33;24.25;;;12.35;;
38591;SDS011;24356;48.460;11.450;2023-02-05T16:50:00;25.77;;;12.02;;
38591;SDS011;24356;48.460;11.450;2023-02-05T16:52:46;23.10;;;12.10;;
38591;SDS011;24356;48.460;11.450;2023-02-05T16:57:49;25.50;;;11.98;;
38591;SDS011;24356;48.460;11.450;2023-02-05T17:00:18;23.85;;;12.10;;
38591;SDS011;24356;48.460;11.450;2023-02-05T17:02:46;28.20;;;16.42;;
38591;SDS011;24356;48.460;11.450;2023-02-05T17:07:54;27.15;;;14.52;;
38591;SDS011;24356;48.460;11.450;2023-02-05T17:10:25;32.42;;;14.48;;
38591;SDS011;24356;48.460;11.450;2023-02-05T17:12:58;24.63;;;13.57;;
38591;SDS011;24356;48.460;11.450;2023-02-05T17:15:29;26.88;;;13.40;;
38591;SDS011;24356;48.460;11.450;2023-02-05T17:17:57;30.65;;;13.73;;
38591;SDS011;24356;48.460;11.450;2023-02-05T17:20:42;29.67;;;15.38;;
38591;SDS011;24356;48.460;11.450;2023-02-05T17:23:10;26.55;;;14.40;;
38591;SDS011;24356;48.460;11.450;2023-02-05T17:25:53;27.27;;;14.02;;
38591;SDS011;24356;48.460;11.450;2023-02-05T17:28:23;27.33;;;13.27;;
38591;SDS011;24356;48.460;11.450;2023-02-05T17:30:51;25.67;;;14.10;;
38591;SDS011;24356;48.460;11.450;2023-02-05T17:33:22;33.35;;;15.88;;
38591;SDS011;24356;48.460;11.450;2023-02-05T17:35:50;26.88;;;13.90;;
38591;SDS011;24356;48.460;11.450;2023-02-05T17:38:17;30.25;;;14.95;;